createdAt,value
2023-02-18T00:01:39.870Z,10.84
2023-02-18T00:04:07.508Z,10.84
2023-02-18T00:06:36.948Z,10.82
2023-02-18T00:09:06.319Z,10.83
2023-02-18T00:11:36.316Z,10.81
2023-02-18T00:14:07.914Z,10.76
2023-02-18T00:16:35.558Z,10.70
2023-02-18T00:19:05.796Z,10.70
2023-02-18T00:21:35.329Z,10.73
2023-02-18T00:24:03.080Z,10.72
2023-02-18T00:26:30.740Z,10.72
2023-02-18T00:28:58.426Z,10.76
2023-02-18T00:31:29.857Z,10.77
2023-02-18T00:33:58.698Z,10.79
2023-02-18T00:36:27.342Z,10.79
2023-02-18T00:38:57.304Z,10.85
2023-02-18T00:41:27.797Z,10.84
2023-02-18T00:43:56.349Z,10.85
2023-02-18T00:46:25.311Z,10.86
2023-02-18T00:48:54.340Z,10.85
2023-02-18T00:51:22.990Z,10.87
2023-02-18T00:53:50.824Z,10.87
2023-02-18T00:56:18.856Z,10.87
2023-02-18T00:58:46.542Z,10.89
2023-02-18T01:01:14.586Z,10.90
2023-02-18T01:03:43.941Z,10.88
2023-02-18T01:06:13.894Z,10.83
2023-02-18T01:08:42.146Z,10.87
2023-02-18T01:11:11.205Z,10.85
2023-02-18T01:13:39.233Z,10.83
2023-02-18T01:16:07.482Z,10.81
2023-02-18T01:18:35.849Z,10.76
2023-02-18T01:21:05.130Z,10.66
2023-02-18T01:23:34.466Z,10.58
2023-02-18T01:26:02.082Z,10.42
2023-02-18T01:28:29.769Z,10.40
2023-02-18T01:30:57.494Z,10.36
2023-02-18T01:33:25.429Z,10.28
2023-02-18T01:35:53.980Z,10.26
2023-02-18T01:38:21.692Z,10.19
2023-02-18T01:40:52.621Z,10.05
2023-02-18T01:43:21.709Z,10.06
2023-02-18T01:46:07.098Z,9.98
2023-02-18T01:48:40.478Z,9.98
2023-02-18T01:51:13.245Z,9.92
2023-02-18T01:53:47.772Z,9.90
2023-02-18T01:56:23.491Z,9.92
2023-02-18T01:58:53.333Z,9.94
2023-02-18T02:01:21.166Z,9.92
2023-02-18T02:03:48.869Z,9.97
2023-02-18T02:06:19.579Z,10.00
2023-02-18T02:08:50.255Z,10.03
2023-02-18T02:11:31.967Z,10.03
2023-02-18T02:14:26.446Z,10.08
2023-02-18T02:17:03.668Z,10.06
2023-02-18T02:20:08.275Z,10.05
2023-02-18T02:23:09.619Z,10.05
2023-02-18T02:26:01.001Z,10.01
2023-02-18T02:29:08.512Z,9.96
2023-02-18T02:32:02.481Z,9.94
2023-02-18T02:34:42.826Z,9.94
2023-02-18T02:37:17.343Z,9.98
2023-02-18T02:39:55.548Z,9.93
2023-02-18T02:42:31.767Z,9.93
2023-02-18T02:45:08.203Z,9.93
2023-02-18T02:47:46.098Z,9.95
2023-02-18T02:50:26.556Z,10.01
2023-02-18T02:53:00.355Z,10.17
2023-02-18T02:55:28.144Z,10.23
2023-02-18T02:57:57.393Z,10.27
2023-02-18T03:00:40.042Z,10.34
2023-02-18T03:03:23.223Z,10.39
2023-02-18T03:06:25.325Z,10.40
2023-02-18T03:09:03.820Z,10.45
2023-02-18T03:11:40.955Z,10.50
2023-02-18T03:14:14.954Z,10.49
2023-02-18T03:16:50.745Z,10.53
2023-02-18T03:19:23.837Z,10.54
2023-02-18T03:21:58.327Z,10.55
2023-02-18T03:24:31.044Z,10.55
2023-02-18T03:27:03.549Z,10.56
2023-02-18T03:29:32.004Z,10.59
2023-02-18T03:32:04.072Z,10.59
2023-02-18T03:34:35.778Z,10.60
2023-02-18T03:37:04.968Z,10.61
2023-02-18T03:39:35.269Z,10.61
2023-02-18T03:42:03.014Z,10.60
2023-02-18T03:44:31.898Z,10.63
2023-02-18T03:46:59.706Z,10.61
2023-02-18T03:49:27.465Z,10.60
2023-02-18T03:51:55.184Z,10.59
2023-02-18T03:54:24.239Z,10.63
2023-02-18T03:56:51.935Z,10.63
2023-02-18T03:59:19.662Z,10.58
2023-02-18T04:01:47.333Z,10.64
2023-02-18T04:04:15.014Z,10.65
2023-02-18T04:06:42.717Z,10.60
2023-02-18T04:09:10.374Z,10.52
2023-02-18T04:11:41.390Z,10.48
2023-02-18T04:14:09.359Z,10.43
2023-02-18T04:16:37.171Z,10.48
2023-02-18T04:19:05.030Z,10.50
2023-02-18T04:21:32.704Z,10.45
2023-02-18T04:24:01.171Z,10.46
2023-02-18T04:26:28.950Z,10.42
2023-02-18T04:28:57.987Z,10.49
2023-02-18T04:31:25.679Z,10.43
2023-02-18T04:33:53.341Z,10.49
2023-02-18T04:36:21.041Z,10.50
2023-02-18T04:38:48.667Z,10.46
2023-02-18T04:41:16.275Z,10.50
2023-02-18T04:43:43.890Z,10.51
2023-02-18T04:46:12.998Z,10.51
2023-02-18T04:48:40.899Z,10.55
2023-02-18T04:51:08.681Z,10.58
2023-02-18T04:53:36.792Z,10.53
2023-02-18T04:56:04.923Z,10.59
2023-02-18T04:58:32.562Z,10.61
2023-02-18T05:01:01.038Z,10.65
2023-02-18T05:03:30.710Z,10.59
2023-02-18T05:05:59.010Z,10.65
2023-02-18T05:08:26.934Z,10.65
2023-02-18T05:10:54.631Z,10.61
2023-02-18T05:13:22.778Z,10.61
2023-02-18T05:15:50.453Z,10.59
2023-02-18T05:18:18.161Z,10.49
2023-02-18T05:20:47.199Z,10.30
2023-02-18T05:23:14.835Z,10.24
2023-02-18T05:25:42.606Z,10.16
2023-02-18T05:28:10.297Z,10.14
2023-02-18T05:30:37.938Z,10.15
2023-02-18T05:33:05.862Z,10.17
2023-02-18T05:35:33.462Z,10.18
2023-02-18T05:38:02.469Z,10.24
2023-02-18T05:40:30.145Z,10.21
2023-02-18T05:42:57.848Z,10.30
2023-02-18T05:45:25.574Z,10.28
2023-02-18T05:47:53.214Z,10.25
2023-02-18T05:50:21.070Z,10.29
2023-02-18T05:52:48.756Z,10.28
2023-02-18T05:55:17.866Z,10.31
2023-02-18T05:57:45.588Z,10.31
2023-02-18T06:00:14.326Z,10.34
2023-02-18T06:02:42.159Z,10.36
2023-02-18T06:05:10.440Z,10.41
2023-02-18T06:07:38.789Z,10.46
2023-02-18T06:10:08.275Z,10.48
2023-02-18T06:12:37.290Z,10.46
2023-02-18T06:15:05.596Z,10.49
2023-02-18T06:17:33.243Z,10.48
2023-02-18T06:20:00.955Z,10.52
2023-02-18T06:22:28.659Z,10.50
2023-02-18T06:24:56.336Z,10.51
2023-02-18T06:27:23.992Z,10.51
2023-02-18T06:29:53.049Z,10.54
2023-02-18T06:32:20.846Z,10.57
2023-02-18T06:34:48.573Z,10.53
2023-02-18T06:37:16.217Z,10.55
2023-02-18T06:39:44.026Z,10.55
2023-02-18T06:42:11.699Z,10.60
2023-02-18T06:44:39.438Z,10.64
2023-02-18T06:47:08.483Z,10.66
2023-02-18T06:49:37.212Z,10.70
2023-02-18T06:52:05.034Z,10.74
2023-02-18T06:54:32.741Z,10.72
2023-02-18T06:57:00.677Z,10.72
2023-02-18T06:59:28.398Z,10.74
2023-02-18T07:01:56.154Z,10.76
2023-02-18T07:04:25.189Z,10.78
2023-02-18T07:06:52.850Z,10.78
2023-02-18T07:09:20.515Z,10.78
2023-02-18T07:11:50.068Z,10.73
2023-02-18T07:14:17.689Z,10.71
2023-02-18T07:16:45.351Z,10.70
2023-02-18T07:19:14.843Z,10.73
2023-02-18T07:21:44.061Z,10.76
2023-02-18T07:24:11.873Z,10.81
2023-02-18T07:26:39.666Z,10.82
2023-02-18T07:29:07.360Z,10.91
2023-02-18T07:31:35.137Z,10.91
2023-02-18T07:34:02.911Z,10.93
2023-02-18T07:36:30.675Z,10.97
2023-02-18T07:38:59.770Z,10.98
2023-02-18T07:41:27.500Z,11.00
2023-02-18T07:43:55.232Z,11.02
2023-02-18T07:46:23.062Z,11.06
2023-02-18T07:48:50.885Z,11.07
2023-02-18T07:51:18.768Z,11.08
2023-02-18T07:53:46.460Z,11.08
2023-02-18T07:56:15.692Z,11.14
2023-02-18T07:58:43.485Z,11.24
2023-02-18T08:01:13.428Z,11.26
2023-02-18T08:03:41.166Z,11.28
2023-02-18T08:06:10.060Z,11.26
2023-02-18T08:08:37.995Z,11.27
2023-02-18T08:11:17.092Z,11.27
2023-02-18T08:13:48.022Z,11.27
2023-02-18T08:16:16.093Z,11.28
2023-02-18T08:18:44.461Z,11.34
2023-02-18T08:21:12.222Z,11.39
2023-02-18T08:23:39.947Z,11.48
2023-02-18T08:26:08.713Z,11.67
2023-02-18T08:28:36.642Z,12.00
2023-02-18T08:31:06.232Z,12.36
2023-02-18T08:33:34.993Z,12.84
2023-02-18T08:36:02.806Z,12.78
2023-02-18T08:38:30.526Z,12.38
2023-02-18T08:41:02.902Z,12.24
2023-02-18T08:43:30.648Z,12.04
2023-02-18T08:45:59.237Z,11.94
2023-02-18T08:48:30.530Z,11.90
2023-02-18T08:50:58.639Z,11.94
2023-02-18T08:53:26.783Z,12.26
2023-02-18T08:55:54.468Z,12.13
2023-02-18T08:58:22.146Z,12.15
2023-02-18T09:00:49.916Z,12.19
2023-02-18T09:03:17.694Z,12.09
2023-02-18T09:05:46.762Z,12.20
2023-02-18T09:08:14.535Z,12.17
2023-02-18T09:10:42.826Z,12.16
2023-02-18T09:13:11.212Z,12.15
2023-02-18T09:15:39.034Z,12.08
2023-02-18T09:18:06.928Z,12.26
2023-02-18T09:20:34.643Z,12.37
2023-02-18T09:23:03.684Z,12.38
2023-02-18T09:25:31.669Z,12.21
2023-02-18T09:27:59.433Z,12.07
2023-02-18T09:30:27.300Z,12.07
2023-02-18T09:32:55.074Z,12.14
2023-02-18T09:35:22.801Z,12.13
2023-02-18T09:37:50.492Z,12.15
2023-02-18T09:40:26.756Z,12.15
2023-02-18T09:42:57.449Z,12.18
2023-02-18T09:45:25.600Z,12.18
2023-02-18T09:47:54.218Z,12.08
2023-02-18T09:50:24.051Z,12.14
2023-02-18T09:52:53.961Z,12.17
2023-02-18T09:55:26.141Z,12.15
2023-02-18T09:57:56.172Z,12.27
2023-02-18T10:00:33.342Z,12.22
2023-02-18T10:03:06.643Z,12.30
2023-02-18T10:05:36.169Z,12.26
2023-02-18T10:08:07.545Z,12.25
2023-02-18T10:10:43.027Z,12.25
2023-02-18T10:13:14.937Z,12.36
2023-02-18T10:15:44.020Z,12.28
2023-02-18T10:21:08.240Z,12.28
2023-02-18T10:23:40.848Z,12.26
2023-02-18T10:26:17.253Z,12.22
2023-02-18T10:28:45.640Z,12.27
2023-02-18T10:31:19.687Z,12.28
2023-02-18T10:33:50.841Z,12.33
2023-02-18T10:36:27.271Z,12.44
2023-02-18T10:39:21.890Z,12.55
2023-02-18T10:42:02.123Z,12.68
2023-02-18T10:44:39.766Z,12.68
2023-02-18T10:47:21.602Z,12.62
2023-02-18T10:49:58.658Z,12.64
2023-02-18T10:52:30.406Z,12.64
2023-02-18T10:55:05.056Z,12.62
2023-02-18T10:57:34.567Z,12.67
2023-02-18T11:00:11.778Z,12.67
2023-02-18T11:02:40.662Z,12.65
2023-02-18T11:05:20.266Z,12.70
2023-02-18T11:07:50.200Z,12.70
2023-02-18T11:10:23.278Z,12.75
2023-02-18T11:12:56.679Z,12.74
2023-02-18T11:15:26.375Z,12.70
2023-02-18T11:17:56.380Z,12.72
2023-02-18T11:20:33.660Z,12.71
2023-02-18T11:23:17.982Z,12.82
2023-02-18T11:25:56.769Z,12.78
2023-02-18T11:28:34.996Z,12.80
2023-02-18T11:31:05.355Z,12.75
2023-02-18T11:33:36.546Z,12.73
2023-02-18T11:36:18.341Z,12.71
2023-02-18T11:38:50.484Z,12.70
2023-02-18T11:41:21.567Z,12.76
2023-02-18T11:43:53.210Z,12.71
2023-02-18T11:46:24.015Z,12.76
2023-02-18T11:48:54.178Z,12.79
2023-02-18T11:51:26.743Z,12.85
2023-02-18T11:54:02.052Z,12.83
2023-02-18T11:56:32.748Z,12.79
2023-02-18T11:59:03.795Z,12.76
2023-02-18T12:01:42.942Z,12.77
2023-02-18T12:04:14.704Z,12.79
2023-02-18T12:06:50.745Z,12.80
2023-02-18T12:09:30.116Z,12.88
2023-02-18T12:12:02.338Z,12.90
2023-02-18T12:14:33.386Z,12.87
2023-02-18T12:17:54.283Z,12.94
2023-02-18T12:20:43.999Z,12.83
2023-02-18T12:23:22.440Z,12.76
2023-02-18T12:26:01.471Z,12.69
2023-02-18T12:28:46.400Z,12.69
2023-02-18T12:31:29.662Z,12.70
2023-02-18T12:34:12.242Z,12.68
2023-02-18T12:36:54.472Z,12.72
2023-02-18T12:39:36.210Z,12.75
2023-02-18T12:42:29.648Z,12.78
2023-02-18T12:45:10.229Z,12.78
2023-02-18T12:47:51.837Z,12.89
2023-02-18T12:50:52.288Z,12.83
2023-02-18T12:53:32.044Z,12.88
2023-02-18T12:56:21.230Z,12.89
2023-02-18T12:58:59.733Z,12.97
2023-02-18T13:01:39.691Z,13.06
2023-02-18T13:04:36.590Z,13.04
2023-02-18T13:07:22.937Z,12.99
2023-02-18T13:10:07.442Z,12.98
2023-02-18T13:12:45.881Z,12.89
2023-02-18T13:15:20.779Z,12.87
2023-02-18T13:17:50.975Z,12.87
2023-02-18T13:20:26.174Z,12.90
2023-02-18T13:22:54.105Z,12.85
2023-02-18T13:25:23.111Z,12.77
2023-02-18T13:28:00.490Z,12.75
2023-02-18T13:30:35.964Z,12.67
2023-02-18T13:33:14.893Z,12.64
2023-02-18T13:35:49.404Z,12.60
2023-02-18T13:38:41.372Z,12.61
2023-02-18T13:41:10.035Z,12.58
2023-02-18T13:43:38.129Z,12.60
2023-02-18T13:46:10.740Z,12.64
2023-02-18T13:48:45.642Z,12.66
2023-02-18T13:51:16.501Z,12.66
2023-02-18T13:53:50.933Z,12.65
2023-02-18T13:56:27.337Z,12.62
2023-02-18T13:59:00.625Z,12.67
2023-02-18T14:01:40.567Z,12.67
2023-02-18T14:04:49.659Z,12.59
2023-02-18T14:07:29.873Z,12.57
2023-02-18T14:09:59.297Z,12.55
2023-02-18T14:12:38.219Z,12.49
2023-02-18T14:15:42.030Z,12.49
2023-02-18T14:18:23.929Z,12.45
2023-02-18T14:20:52.676Z,12.48
2023-02-18T14:23:56.364Z,12.46
2023-02-18T14:26:32.115Z,12.38
2023-02-18T14:29:06.880Z,12.42
2023-02-18T14:31:42.562Z,12.38
2023-02-18T14:34:42.856Z,12.35
2023-02-18T14:37:40.934Z,12.38
2023-02-18T14:40:42.478Z,12.34
2023-02-18T14:43:20.466Z,12.33
2023-02-18T14:46:13.013Z,12.35
2023-02-18T14:48:52.224Z,12.41
2023-02-18T14:51:23.920Z,12.41
2023-02-18T14:53:52.405Z,12.45
2023-02-18T14:56:23.107Z,12.42
2023-02-18T14:58:53.913Z,12.40
2023-02-18T15:01:24.742Z,12.25
2023-02-18T15:03:55.289Z,12.01
2023-02-18T15:06:29.427Z,11.90
2023-02-18T15:08:57.465Z,11.80
2023-02-18T15:11:36.192Z,11.64
2023-02-18T15:14:06.464Z,11.52
2023-02-18T15:16:35.348Z,11.41
2023-02-18T15:19:05.632Z,11.43
2023-02-18T15:21:36.000Z,11.39
2023-02-18T15:24:08.190Z,11.40
2023-02-18T15:26:42.347Z,11.42
2023-02-18T15:29:18.938Z,11.43
2023-02-18T15:31:47.827Z,11.44
2023-02-18T15:34:36.117Z,11.41
2023-02-18T15:37:05.730Z,11.40
2023-02-18T15:39:34.015Z,11.34
2023-02-18T15:42:09.171Z,11.36
2023-02-18T15:44:38.597Z,11.37
2023-02-18T15:47:09.461Z,11.31
2023-02-18T15:49:40.340Z,11.28
2023-02-18T15:52:09.665Z,11.27
2023-02-18T15:54:41.153Z,11.20
2023-02-18T15:57:15.402Z,11.18
2023-02-18T15:59:48.476Z,11.12
2023-02-18T16:02:20.327Z,11.13
2023-02-18T16:04:52.065Z,11.11
2023-02-18T16:07:25.254Z,11.16
2023-02-18T16:10:08.705Z,11.19
2023-02-18T16:12:40.533Z,11.13
2023-02-18T16:15:15.724Z,11.16
2023-02-18T16:17:45.694Z,11.15
2023-02-18T16:20:24.272Z,10.95
2023-02-18T16:22:54.290Z,10.71
2023-02-18T16:25:25.386Z,10.69
2023-02-18T16:28:04.418Z,10.77
2023-02-18T16:30:34.099Z,10.65
2023-02-18T16:33:02.145Z,10.56
2023-02-18T16:35:43.958Z,10.44
2023-02-18T16:38:19.258Z,10.35
2023-02-18T16:40:46.956Z,10.29
2023-02-18T16:43:17.794Z,10.16
2023-02-18T16:45:49.615Z,10.12
2023-02-18T16:48:22.657Z,10.19
2023-02-18T16:50:51.682Z,10.23
2023-02-18T16:53:19.998Z,10.29
2023-02-18T16:55:47.785Z,10.31
2023-02-18T16:58:16.740Z,10.31
2023-02-18T17:00:44.937Z,10.28
2023-02-18T17:03:14.348Z,10.20
2023-02-18T17:05:42.156Z,10.08
2023-02-18T17:08:18.628Z,10.05
2023-02-18T17:10:48.164Z,10.07
2023-02-18T17:13:18.410Z,10.05
2023-02-18T17:15:48.042Z,10.05
2023-02-18T17:18:16.590Z,10.13
2023-02-18T17:20:44.773Z,10.28
2023-02-18T17:23:16.145Z,10.34
2023-02-18T17:25:44.199Z,10.33
2023-02-18T17:28:12.110Z,10.32
2023-02-18T17:30:42.875Z,10.34
2023-02-18T17:33:14.828Z,10.44
2023-02-18T17:35:42.726Z,10.50
2023-02-18T17:38:12.146Z,10.51
2023-02-18T17:40:40.390Z,10.55
2023-02-18T17:43:11.813Z,10.56
2023-02-18T17:45:44.448Z,10.57
2023-02-18T17:48:12.203Z,10.50
2023-02-18T17:50:39.806Z,10.43
2023-02-18T17:53:08.216Z,10.52
2023-02-18T17:55:37.546Z,10.55
2023-02-18T17:58:05.333Z,10.55
2023-02-18T18:00:35.639Z,10.54
2023-02-18T18:03:05.349Z,10.54
2023-02-18T18:05:35.540Z,10.55
2023-02-18T18:08:04.599Z,10.60
2023-02-18T18:10:36.798Z,10.61
2023-02-18T18:13:06.168Z,10.61
2023-02-18T18:15:39.593Z,10.57
2023-02-18T18:18:10.554Z,10.51
2023-02-18T18:20:39.354Z,10.49
2023-02-18T18:23:08.427Z,10.42
2023-02-18T18:25:39.527Z,10.46
2023-02-18T18:28:08.215Z,10.52
2023-02-18T18:30:38.446Z,10.48
2023-02-18T18:33:16.718Z,10.52
2023-02-18T18:35:46.856Z,10.53
2023-02-18T18:38:14.959Z,10.51
2023-02-18T18:40:43.234Z,10.49
2023-02-18T18:43:17.653Z,10.46
2023-02-18T18:45:45.380Z,10.46
2023-02-18T18:48:14.460Z,10.44
2023-02-18T18:50:42.582Z,10.46
2023-02-18T18:53:18.325Z,10.46
2023-02-18T18:55:46.582Z,10.49
2023-02-18T18:58:14.436Z,10.50
2023-02-18T19:00:44.178Z,10.45
2023-02-18T19:03:14.132Z,10.46
2023-02-18T19:05:44.485Z,10.43
2023-02-18T19:08:13.375Z,10.46
2023-02-18T19:10:43.790Z,10.46
2023-02-18T19:13:15.402Z,10.40
2023-02-18T19:15:43.814Z,10.42
2023-02-18T19:18:15.934Z,10.42
2023-02-18T19:20:44.304Z,10.40
2023-02-18T19:23:12.060Z,10.41
2023-02-18T19:25:40.933Z,10.39
2023-02-18T19:28:11.164Z,10.41
2023-02-18T19:30:40.359Z,10.42
2023-02-18T19:33:08.783Z,10.41
2023-02-18T19:35:40.100Z,10.36
2023-02-18T19:38:08.986Z,10.34
2023-02-18T19:40:37.058Z,10.32
2023-02-18T19:43:05.151Z,10.31
2023-02-18T19:45:33.167Z,10.31
2023-02-18T19:48:02.129Z,10.36
2023-02-18T19:50:31.629Z,10.29
2023-02-18T19:53:00.755Z,10.25
2023-02-18T19:55:28.590Z,10.27
2023-02-18T19:57:56.258Z,10.31
2023-02-18T20:00:24.645Z,10.33
2023-02-18T20:02:53.758Z,10.28
2023-02-18T20:05:22.072Z,10.27
2023-02-18T20:07:49.966Z,10.27
2023-02-18T20:10:21.086Z,10.23
2023-02-18T20:12:53.370Z,10.28
2023-02-18T20:15:21.512Z,10.27
2023-02-18T20:17:49.568Z,10.30
2023-02-18T20:20:18.078Z,10.33
2023-02-18T20:22:46.634Z,10.28
2023-02-18T20:25:16.051Z,10.30
2023-02-18T20:27:59.946Z,10.29
2023-02-18T20:30:30.933Z,10.29
2023-02-18T20:32:59.006Z,10.32
2023-02-18T20:35:26.899Z,10.26
2023-02-18T20:37:54.690Z,10.29
2023-02-18T20:40:22.517Z,10.26
2023-02-18T20:42:51.757Z,10.25
2023-02-18T20:45:19.879Z,10.22
2023-02-18T20:47:47.766Z,10.19
2023-02-18T20:50:16.048Z,10.24
2023-02-18T20:52:44.014Z,10.25
2023-02-18T20:55:11.986Z,10.25
2023-02-18T20:57:39.699Z,10.26
2023-02-18T21:00:10.259Z,10.22
2023-02-18T21:02:39.380Z,10.18
2023-02-18T21:05:07.527Z,10.25
2023-02-18T21:07:36.457Z,10.21
2023-02-18T21:10:05.121Z,10.25
2023-02-18T21:12:32.938Z,10.23
2023-02-18T21:15:00.922Z,10.20
2023-02-18T21:17:30.086Z,10.19
2023-02-18T21:19:58.350Z,10.20
2023-02-18T21:22:26.169Z,10.19
2023-02-18T21:24:54.199Z,10.19
2023-02-18T21:27:22.239Z,10.12
2023-02-18T21:29:50.424Z,10.07
2023-02-18T21:32:18.330Z,10.03
2023-02-18T21:34:48.433Z,10.07
2023-02-18T21:37:16.137Z,10.07
2023-02-18T21:39:43.875Z,10.05
2023-02-18T21:42:11.602Z,10.03
2023-02-18T21:44:42.619Z,10.01
2023-02-18T21:47:10.774Z,10.05
2023-02-18T21:49:38.810Z,9.99
2023-02-18T21:52:10.818Z,9.99
2023-02-18T21:54:40.691Z,10.00
2023-02-18T21:57:11.737Z,9.96
2023-02-18T21:59:40.685Z,9.92
2023-02-18T22:02:15.481Z,9.85
2023-02-18T22:04:43.526Z,9.86
2023-02-18T22:07:13.073Z,9.83
2023-02-18T22:09:41.274Z,9.85
2023-02-18T22:12:10.478Z,9.85
2023-02-18T22:14:38.292Z,9.85
2023-02-18T22:17:06.085Z,9.86
2023-02-18T22:19:33.783Z,9.84
2023-02-18T22:22:02.593Z,9.82
2023-02-18T22:24:32.482Z,9.77
2023-02-18T22:27:01.509Z,9.78
2023-02-18T22:29:31.400Z,9.71
2023-02-18T22:31:59.196Z,9.75
2023-02-18T22:34:26.907Z,9.70
2023-02-18T22:36:54.593Z,9.64
2023-02-18T22:39:22.366Z,9.62
2023-02-18T22:41:51.374Z,9.64
2023-02-18T22:44:19.000Z,9.68
2023-02-18T22:46:46.813Z,9.70
2023-02-18T22:49:14.531Z,9.65
2023-02-18T22:51:44.045Z,9.70
2023-02-18T22:54:13.588Z,9.71
2023-02-18T22:56:41.394Z,9.70
2023-02-18T22:59:11.784Z,9.75
2023-02-18T23:01:41.324Z,9.72
2023-02-18T23:04:11.231Z,9.71
2023-02-18T23:06:40.394Z,9.69
2023-02-18T23:09:09.443Z,9.64
2023-02-18T23:11:37.178Z,9.68
2023-02-18T23:14:20.120Z,9.65
2023-02-18T23:17:08.852Z,9.60
2023-02-18T23:19:38.025Z,9.58
2023-02-18T23:22:06.384Z,9.54
2023-02-18T23:24:35.132Z,9.50
2023-02-18T23:27:03.169Z,9.50
2023-02-18T23:29:30.868Z,9.51
2023-02-18T23:31:59.986Z,9.52
2023-02-18T23:34:28.509Z,9.51
2023-02-18T23:36:56.478Z,9.48
2023-02-18T23:39:24.405Z,9.43
2023-02-18T23:41:52.799Z,9.42
2023-02-18T23:44:22.294Z,9.45
2023-02-18T23:46:50.197Z,9.41
2023-02-18T23:49:22.043Z,9.38
2023-02-18T23:51:50.268Z,9.30
2023-02-18T23:54:18.200Z,9.32
2023-02-18T23:56:46.361Z,9.28
2023-02-18T23:59:14.353Z,9.23
